Terminal Aerodrome Forecast
Issued by NWS Melbourne, FL

Home | Current Version | Previous Version | Text Only | Print | Product List | Glossary On
Versions: 1 2 3 4 5 6 7 8 9 10 11 12 13 14 15 16 17 18 19 20 21 22 23 24 25 26
000
FTUS42 KMLB 012300
TAFMCO
TAF
KMCO 012332Z 0200/0224 12010KT P6SM BKN080 OVC250
     FM020200 14003KT P6SM FEW050 BKN250
     FM021500 09007KT P6SM SCT020 SCT250
     FM021700 08011KT P6SM VCTS SCT040CB BKN080 BKN250=

USA.gov is the U.S. government's official web portal to all federal, state and local government web resources and services.